sensor_id;sensor_type;location;lat;lon;timestamp;pressure;altitude;pressure_sealevel;temperature;humidity
6567;BME280;3317;43.994;22.878;2022-10-31T00:02:14;101398.59;;;18.21;46.74
6567;BME280;3317;43.994;22.878;2022-10-31T00:04:41;101397.56;;;18.22;46.69
6567;BME280;3317;43.994;22.878;2022-10-31T00:07:08;101386.19;;;18.10;46.94
6567;BME280;3317;43.994;22.878;2022-10-31T00:09:35;101394.91;;;18.14;46.92
6567;BME280;3317;43.994;22.878;2022-10-31T00:12:02;101366.47;;;17.92;47.19
6567;BME280;3317;43.994;22.878;2022-10-31T00:14:29;101398.41;;;18.08;47.42
6567;BME280;3317;43.994;22.878;2022-10-31T00:16:56;101402.38;;;18.05;47.25
6567;BME280;3317;43.994;22.878;2022-10-31T00:19:24;101387.59;;;18.06;47.35
6567;BME280;3317;43.994;22.878;2022-10-31T00:21:52;101393.97;;;18.07;47.58
6567;BME280;3317;43.994;22.878;2022-10-31T00:24:19;101401.97;;;18.08;47.29
6567;BME280;3317;43.994;22.878;2022-10-31T00:26:45;101403.31;;;18.12;46.62
6567;BME280;3317;43.994;22.878;2022-10-31T00:29:13;101400.00;;;18.17;46.04
6567;BME280;3317;43.994;22.878;2022-10-31T00:31:40;101391.75;;;18.17;46.02
6567;BME280;3317;43.994;22.878;2022-10-31T00:34:06;101404.25;;;18.20;46.09
6567;BME280;3317;43.994;22.878;2022-10-31T00:36:35;101412.97;;;18.23;45.96
6567;BME280;3317;43.994;22.878;2022-10-31T00:39:02;101418.94;;;18.27;45.78
6567;BME280;3317;43.994;22.878;2022-10-31T00:41:29;101414.13;;;18.29;46.05
6567;BME280;3317;43.994;22.878;2022-10-31T00:43:56;101411.38;;;18.29;45.70
6567;BME280;3317;43.994;22.878;2022-10-31T00:46:23;101407.19;;;18.33;45.23
6567;BME280;3317;43.994;22.878;2022-10-31T00:48:50;101410.81;;;18.34;45.25
6567;BME280;3317;43.994;22.878;2022-10-31T00:51:17;101408.72;;;18.36;45.20
6567;BME280;3317;43.994;22.878;2022-10-31T00:53:45;101393.66;;;18.32;45.86
6567;BME280;3317;43.994;22.878;2022-10-31T00:56:12;101387.63;;;18.21;45.99
6567;BME280;3317;43.994;22.878;2022-10-31T00:58:39;101402.09;;;18.30;46.55
6567;BME280;3317;43.994;22.878;2022-10-31T01:01:06;101391.50;;;18.27;46.45
6567;BME280;3317;43.994;22.878;2022-10-31T01:03:33;101381.94;;;18.23;45.79
6567;BME280;3317;43.994;22.878;2022-10-31T01:06:02;101384.31;;;18.26;45.50
6567;BME280;3317;43.994;22.878;2022-10-31T01:08:31;101400.78;;;18.26;46.08
6567;BME280;3317;43.994;22.878;2022-10-31T01:11:01;101393.56;;;18.25;46.70
6567;BME280;3317;43.994;22.878;2022-10-31T01:13:28;101315.69;;;17.66;46.75
6567;BME280;3317;43.994;22.878;2022-10-31T01:15:55;101401.13;;;18.23;47.21
6567;BME280;3317;43.994;22.878;2022-10-31T01:18:23;101403.41;;;18.19;46.52
6567;BME280;3317;43.994;22.878;2022-10-31T01:20:58;101413.16;;;18.22;46.23
6567;BME280;3317;43.994;22.878;2022-10-31T01:23:25;101411.44;;;18.21;46.09
6567;BME280;3317;43.994;22.878;2022-10-31T01:26:05;101390.44;;;18.13;47.18
6567;BME280;3317;43.994;22.878;2022-10-31T01:28:33;101408.88;;;18.19;47.27
6567;BME280;3317;43.994;22.878;2022-10-31T01:31:01;101407.00;;;18.20;46.14
6567;BME280;3317;43.994;22.878;2022-10-31T01:33:28;101402.56;;;18.19;45.60
6567;BME280;3317;43.994;22.878;2022-10-31T01:35:55;101401.69;;;18.18;45.41
6567;BME280;3317;43.994;22.878;2022-10-31T01:38:22;101410.13;;;18.17;45.89
6567;BME280;3317;43.994;22.878;2022-10-31T01:40:49;101405.88;;;18.14;45.59
6567;BME280;3317;43.994;22.878;2022-10-31T01:43:18;101408.78;;;18.12;45.82
6567;BME280;3317;43.994;22.878;2022-10-31T01:45:51;101411.53;;;18.12;45.71
6567;BME280;3317;43.994;22.878;2022-10-31T01:48:21;101413.63;;;18.10;45.81
6567;BME280;3317;43.994;22.878;2022-10-31T01:50:50;101408.19;;;18.02;45.44
6567;BME280;3317;43.994;22.878;2022-10-31T01:53:20;101411.25;;;18.07;45.29
6567;BME280;3317;43.994;22.878;2022-10-31T01:55:48;101410.41;;;18.07;45.55
6567;BME280;3317;43.994;22.878;2022-10-31T01:58:19;101403.41;;;18.04;45.79
6567;BME280;3317;43.994;22.878;2022-10-31T02:00:49;101411.97;;;18.01;45.79
6567;BME280;3317;43.994;22.878;2022-10-31T02:03:19;101410.47;;;17.98;46.03
6567;BME280;3317;43.994;22.878;2022-10-31T02:05:47;101424.56;;;17.95;47.05
6567;BME280;3317;43.994;22.878;2022-10-31T02:08:18;101421.97;;;17.94;46.49
6567;BME280;3317;43.994;22.878;2022-10-31T02:10:47;101433.50;;;17.89;47.21
6567;BME280;3317;43.994;22.878;2022-10-31T02:13:14;101425.66;;;17.86;48.08
6567;BME280;3317;43.994;22.878;2022-10-31T02:15:45;101435.28;;;17.82;47.70
6567;BME280;3317;43.994;22.878;2022-10-31T02:18:13;101430.16;;;17.79;49.17
6567;BME280;3317;43.994;22.878;2022-10-31T02:20:48;101433.78;;;17.79;47.85
6567;BME280;3317;43.994;22.878;2022-10-31T02:23:36;101432.91;;;17.79;47.33
6567;BME280;3317;43.994;22.878;2022-10-31T02:26:32;101429.38;;;17.70;47.44
6567;BME280;3317;43.994;22.878;2022-10-31T02:29:13;101425.38;;;17.57;47.61
6567;BME280;3317;43.994;22.878;2022-10-31T02:31:56;101435.13;;;17.60;47.81
6567;BME280;3317;43.994;22.878;2022-10-31T02:34:30;101436.53;;;17.56;47.78
6567;BME280;3317;43.994;22.878;2022-10-31T02:37:06;101434.63;;;17.56;48.05
6567;BME280;3317;43.994;22.878;2022-10-31T02:39:42;101427.63;;;17.54;48.62
6567;BME280;3317;43.994;22.878;2022-10-31T02:42:16;101431.22;;;17.54;48.65
6567;BME280;3317;43.994;22.878;2022-10-31T02:44:48;101412.31;;;17.44;48.76
6567;BME280;3317;43.994;22.878;2022-10-31T02:47:22;101427.81;;;17.52;48.62
6567;BME280;3317;43.994;22.878;2022-10-31T02:49:55;101425.47;;;17.49;49.17
6567;BME280;3317;43.994;22.878;2022-10-31T02:52:25;101426.84;;;17.45;49.77
6567;BME280;3317;43.994;22.878;2022-10-31T02:54:52;101431.00;;;17.41;49.06
6567;BME280;3317;43.994;22.878;2022-10-31T02:57:24;101434.78;;;17.40;49.17
6567;BME280;3317;43.994;22.878;2022-10-31T02:59:53;101439.38;;;17.39;49.29
6567;BME280;3317;43.994;22.878;2022-10-31T03:02:41;101437.00;;;17.36;48.95
6567;BME280;3317;43.994;22.878;2022-10-31T03:05:28;101440.50;;;17.30;49.32
6567;BME280;3317;43.994;22.878;2022-10-31T03:08:06;101440.28;;;17.31;48.70
6567;BME280;3317;43.994;22.878;2022-10-31T03:10:40;101428.03;;;17.19;49.19
6567;BME280;3317;43.994;22.878;2022-10-31T03:13:15;101434.75;;;17.16;48.05
6567;BME280;3317;43.994;22.878;2022-10-31T03:15:50;101405.22;;;16.95;48.76
6567;BME280;3317;43.994;22.878;2022-10-31T03:18:23;101453.56;;;17.20;49.69
6567;BME280;3317;43.994;22.878;2022-10-31T03:20:57;101446.25;;;17.12;48.88
6567;BME280;3317;43.994;22.878;2022-10-31T03:23:26;101459.41;;;17.16;48.77
6567;BME280;3317;43.994;22.878;2022-10-31T03:25:55;101466.94;;;17.14;49.75
6567;BME280;3317;43.994;22.878;2022-10-31T03:28:27;101462.00;;;17.10;50.22
6567;BME280;3317;43.994;22.878;2022-10-31T03:30:57;101455.84;;;17.08;50.19
6567;BME280;3317;43.994;22.878;2022-10-31T03:33:29;101398.16;;;16.69;50.32
6567;BME280;3317;43.994;22.878;2022-10-31T03:36:00;101457.75;;;17.07;50.37
6567;BME280;3317;43.994;22.878;2022-10-31T03:38:29;101477.56;;;17.09;50.50
6567;BME280;3317;43.994;22.878;2022-10-31T03:41:00;101464.06;;;17.08;50.48
6567;BME280;3317;43.994;22.878;2022-10-31T03:43:32;101463.38;;;17.06;50.32
6567;BME280;3317;43.994;22.878;2022-10-31T03:46:02;101460.28;;;17.09;50.31
6567;BME280;3317;43.994;22.878;2022-10-31T03:48:31;101400.91;;;16.69;50.52
6567;BME280;3317;43.994;22.878;2022-10-31T03:51:04;101454.88;;;17.00;50.17
6567;BME280;3317;43.994;22.878;2022-10-31T03:53:38;101473.97;;;17.09;50.30
6567;BME280;3317;43.994;22.878;2022-10-31T03:56:11;101458.28;;;17.02;50.65
6567;BME280;3317;43.994;22.878;2022-10-31T03:58:43;101462.34;;;17.07;50.45
6567;BME280;3317;43.994;22.878;2022-10-31T04:01:15;101466.63;;;17.09;49.90
6567;BME280;3317;43.994;22.878;2022-10-31T04:03:45;101457.06;;;17.05;50.23
6567;BME280;3317;43.994;22.878;2022-10-31T04:06:14;101468.88;;;17.06;50.60
6567;BME280;3317;43.994;22.878;2022-10-31T04:08:45;101461.31;;;17.08;49.55
6567;BME280;3317;43.994;22.878;2022-10-31T04:11:16;101447.16;;;17.04;48.94
6567;BME280;3317;43.994;22.878;2022-10-31T04:13:46;101427.84;;;16.89;49.31
6567;BME280;3317;43.994;22.878;2022-10-31T04:16:15;101419.19;;;16.77;49.55
6567;BME280;3317;43.994;22.878;2022-10-31T04:18:44;101461.31;;;17.08;49.27
6567;BME280;3317;43.994;22.878;2022-10-31T04:21:11;101473.97;;;17.09;48.60
6567;BME280;3317;43.994;22.878;2022-10-31T04:23:38;101467.81;;;17.07;48.73
6567;BME280;3317;43.994;22.878;2022-10-31T04:26:05;101467.66;;;17.08;48.36
6567;BME280;3317;43.994;22.878;2022-10-31T04:28:32;101463.59;;;17.04;47.96
6567;BME280;3317;43.994;22.878;2022-10-31T04:30:59;101463.22;;;17.07;48.07
6567;BME280;3317;43.994;22.878;2022-10-31T04:33:26;101471.44;;;17.07;48.02
6567;BME280;3317;43.994;22.878;2022-10-31T04:35:54;101465.28;;;17.05;48.23
6567;BME280;3317;43.994;22.878;2022-10-31T04:38:21;101463.91;;;17.01;48.25
6567;BME280;3317;43.994;22.878;2022-10-31T04:40:48;101465.47;;;17.03;48.28
6567;BME280;3317;43.994;22.878;2022-10-31T04:43:15;101464.78;;;17.01;48.08
6567;BME280;3317;43.994;22.878;2022-10-31T04:45:42;101467.69;;;17.00;47.91
6567;BME280;3317;43.994;22.878;2022-10-31T04:48:09;101448.22;;;16.86;47.69
6567;BME280;3317;43.994;22.878;2022-10-31T04:50:36;101459.13;;;16.95;48.22
6567;BME280;3317;43.994;22.878;2022-10-31T04:53:05;101466.31;;;16.96;48.76
6567;BME280;3317;43.994;22.878;2022-10-31T04:55:32;101474.69;;;16.94;50.21
6567;BME280;3317;43.994;22.878;2022-10-31T04:57:59;101461.38;;;16.91;49.47
6567;BME280;3317;43.994;22.878;2022-10-31T05:00:26;101468.91;;;16.89;49.09
6567;BME280;3317;43.994;22.878;2022-10-31T05:02:54;101470.63;;;16.90;48.36
6567;BME280;3317;43.994;22.878;2022-10-31T05:05:24;101470.97;;;16.87;48.81
6567;BME280;3317;43.994;22.878;2022-10-31T05:07:52;101474.75;;;16.86;48.40
6567;BME280;3317;43.994;22.878;2022-10-31T05:10:23;101470.47;;;16.83;49.44
6567;BME280;3317;43.994;22.878;2022-10-31T05:12:52;101477.00;;;16.82;50.28
6567;BME280;3317;43.994;22.878;2022-10-31T05:15:21;101479.06;;;16.80;51.25
6567;BME280;3317;43.994;22.878;2022-10-31T05:17:48;101476.47;;;16.79;49.87
6567;BME280;3317;43.994;22.878;2022-10-31T05:20:17;101470.69;;;16.73;49.13
6567;BME280;3317;43.994;22.878;2022-10-31T05:22:45;101486.09;;;16.74;49.91
6567;BME280;3317;43.994;22.878;2022-10-31T05:25:13;101485.06;;;16.75;50.49
6567;BME280;3317;43.994;22.878;2022-10-31T05:27:43;101494.47;;;16.73;49.27
6567;BME280;3317;43.994;22.878;2022-10-31T05:30:12;101489.00;;;16.73;49.06
6567;BME280;3317;43.994;22.878;2022-10-31T05:32:39;101497.41;;;16.71;48.98
6567;BME280;3317;43.994;22.878;2022-10-31T05:35:07;101480.31;;;16.61;48.87
6567;BME280;3317;43.994;22.878;2022-10-31T05:37:35;101499.25;;;16.71;50.03
6567;BME280;3317;43.994;22.878;2022-10-31T05:40:02;101498.59;;;16.69;49.83
6567;BME280;3317;43.994;22.878;2022-10-31T05:42:29;101498.44;;;16.70;49.97
6567;BME280;3317;43.994;22.878;2022-10-31T05:44:58;101503.91;;;16.70;51.00
6567;BME280;3317;43.994;22.878;2022-10-31T05:47:24;101506.63;;;16.70;51.69
6567;BME280;3317;43.994;22.878;2022-10-31T05:49:52;101510.03;;;16.72;52.02
6567;BME280;3317;43.994;22.878;2022-10-31T05:52:19;101506.28;;;16.73;51.94
6567;BME280;3317;43.994;22.878;2022-10-31T05:54:46;101503.56;;;16.65;52.05
6567;BME280;3317;43.994;22.878;2022-10-31T05:57:13;101517.53;;;16.79;52.03
6567;BME280;3317;43.994;22.878;2022-10-31T05:59:39;101505.91;;;16.77;52.02
6567;BME280;3317;43.994;22.878;2022-10-31T06:02:08;101518.56;;;16.86;51.71
6567;BME280;3317;43.994;22.878;2022-10-31T06:04:35;101520.94;;;16.89;51.55
6567;BME280;3317;43.994;22.878;2022-10-31T06:07:02;101515.09;;;16.92;51.82
6567;BME280;3317;43.994;22.878;2022-10-31T06:09:29;101514.41;;;16.98;52.23
6567;BME280;3317;43.994;22.878;2022-10-31T06:11:56;101504.28;;;16.99;52.55
6567;BME280;3317;43.994;22.878;2022-10-31T06:14:23;101521.41;;;17.09;52.57
6567;BME280;3317;43.994;22.878;2022-10-31T06:16:50;101517.09;;;17.15;52.53
6567;BME280;3317;43.994;22.878;2022-10-31T06:19:18;101526.31;;;17.22;51.90
6567;BME280;3317;43.994;22.878;2022-10-31T06:21:45;101525.59;;;17.28;51.68
6567;BME280;3317;43.994;22.878;2022-10-31T06:24:12;101515.81;;;17.26;51.80
6567;BME280;3317;43.994;22.878;2022-10-31T06:26:40;101533.91;;;17.43;51.42
6567;BME280;3317;43.994;22.878;2022-10-31T06:29:07;101534.38;;;17.47;51.57
6567;BME280;3317;43.994;22.878;2022-10-31T06:31:34;101531.59;;;17.55;51.73
6567;BME280;3317;43.994;22.878;2022-10-31T06:34:01;101537.03;;;17.64;51.75
6567;BME280;3317;43.994;22.878;2022-10-31T06:36:29;101531.84;;;17.69;51.32
6567;BME280;3317;43.994;22.878;2022-10-31T06:38:56;101541.34;;;17.81;51.28
6567;BME280;3317;43.994;22.878;2022-10-31T06:41:24;101541.09;;;17.91;50.80
6567;BME280;3317;43.994;22.878;2022-10-31T06:43:51;101544.44;;;18.01;50.55
6567;BME280;3317;43.994;22.878;2022-10-31T06:46:17;101531.94;;;17.99;50.14
6567;BME280;3317;43.994;22.878;2022-10-31T06:48:44;101556.56;;;18.15;50.07
6567;BME280;3317;43.994;22.878;2022-10-31T06:51:11;101556.66;;;18.22;51.78
6567;BME280;3317;43.994;22.878;2022-10-31T06:53:40;101554.22;;;18.27;54.94
6567;BME280;3317;43.994;22.878;2022-10-31T06:56:07;101549.88;;;18.33;55.62
6567;BME280;3317;43.994;22.878;2022-10-31T06:58:34;101556.50;;;18.39;56.23
6567;BME280;3317;43.994;22.878;2022-10-31T07:01:01;101549.44;;;18.44;56.05
6567;BME280;3317;43.994;22.878;2022-10-31T07:03:28;101525.38;;;18.47;55.86
6567;BME280;3317;43.994;22.878;2022-10-31T07:05:55;101538.03;;;18.71;55.07
6567;BME280;3317;43.994;22.878;2022-10-31T07:08:22;101538.88;;;18.86;54.53
6567;BME280;3317;43.994;22.878;2022-10-31T07:10:53;101527.22;;;18.99;54.07
6567;BME280;3317;43.994;22.878;2022-10-31T07:13:20;101530.16;;;19.13;53.30
6567;BME280;3317;43.994;22.878;2022-10-31T07:15:52;101521.22;;;19.26;52.43
6567;BME280;3317;43.994;22.878;2022-10-31T07:18:20;101514.56;;;19.35;51.44
6567;BME280;3317;43.994;22.878;2022-10-31T07:20:47;101529.22;;;19.58;50.72
6567;BME280;3317;43.994;22.878;2022-10-31T07:23:14;101493.56;;;19.49;50.06
6567;BME280;3317;43.994;22.878;2022-10-31T07:25:41;101535.44;;;19.88;50.22
6567;BME280;3317;43.994;22.878;2022-10-31T07:28:10;101534.75;;;20.01;50.16
6567;BME280;3317;43.994;22.878;2022-10-31T07:30:37;101524.19;;;20.05;50.08
6567;BME280;3317;43.994;22.878;2022-10-31T07:33:05;101533.25;;;20.27;49.33
6567;BME280;3317;43.994;22.878;2022-10-31T07:35:32;101527.84;;;20.40;48.96
6567;BME280;3317;43.994;22.878;2022-10-31T07:38:07;101522.25;;;20.56;48.01
6567;BME280;3317;43.994;22.878;2022-10-31T07:40:34;101526.56;;;20.72;47.36
6567;BME280;3317;43.994;22.878;2022-10-31T07:43:01;101519.28;;;20.86;46.93
6567;BME280;3317;43.994;22.878;2022-10-31T07:45:30;101525.75;;;21.06;47.03
6567;BME280;3317;43.994;22.878;2022-10-31T07:47:57;101521.56;;;21.24;47.00
6567;BME280;3317;43.994;22.878;2022-10-31T07:50:26;101515.88;;;21.32;46.92
6567;BME280;3317;43.994;22.878;2022-10-31T07:53:00;101535.25;;;21.59;46.95
6567;BME280;3317;43.994;22.878;2022-10-31T07:55:27;101525.78;;;21.75;46.82
6567;BME280;3317;43.994;22.878;2022-10-31T07:57:57;101528.56;;;21.89;46.35
6567;BME280;3317;43.994;22.878;2022-10-31T08:00:24;101523.47;;;22.06;46.47
6567;BME280;3317;43.994;22.878;2022-10-31T08:02:58;101523.69;;;22.25;45.55
6567;BME280;3317;43.994;22.878;2022-10-31T08:05:27;101513.91;;;22.35;44.91
6567;BME280;3317;43.994;22.878;2022-10-31T08:07:54;101530.28;;;22.57;44.41
6567;BME280;3317;43.994;22.878;2022-10-31T08:10:21;101525.13;;;22.74;43.67
6567;BME280;3317;43.994;22.878;2022-10-31T08:12:55;101532.94;;;22.91;43.50
6567;BME280;3317;43.994;22.878;2022-10-31T08:15:24;101530.13;;;23.11;43.71
6567;BME280;3317;43.994;22.878;2022-10-31T08:17:51;101522.22;;;23.28;43.93
6567;BME280;3317;43.994;22.878;2022-10-31T08:20:21;101518.50;;;23.41;42.99
6567;BME280;3317;43.994;22.878;2022-10-31T08:22:56;101519.25;;;23.62;42.21
6567;BME280;3317;43.994;22.878;2022-10-31T08:25:25;101491.38;;;23.63;41.56
6567;BME280;3317;43.994;22.878;2022-10-31T08:27:53;101521.78;;;23.96;41.51
6567;BME280;3317;43.994;22.878;2022-10-31T08:30:22;101527.78;;;24.18;41.12
6567;BME280;3317;43.994;22.878;2022-10-31T08:33:00;101516.16;;;24.35;41.19
6567;BME280;3317;43.994;22.878;2022-10-31T08:35:31;101506.00;;;24.47;40.98
6567;BME280;3317;43.994;22.878;2022-10-31T08:37:58;101509.72;;;24.59;39.86
6567;BME280;3317;43.994;22.878;2022-10-31T08:40:28;101507.88;;;24.72;39.82
6567;BME280;3317;43.994;22.878;2022-10-31T08:42:56;101504.97;;;24.85;39.81
6567;BME280;3317;43.994;22.878;2022-10-31T08:45:24;101495.16;;;24.89;40.37
6567;BME280;3317;43.994;22.878;2022-10-31T08:47:52;101511.06;;;25.13;40.36
6567;BME280;3317;43.994;22.878;2022-10-31T08:50:19;101505.56;;;25.25;39.90
6567;BME280;3317;43.994;22.878;2022-10-31T08:52:47;101514.06;;;25.42;39.30
6567;BME280;3317;43.994;22.878;2022-10-31T08:55:15;101518.38;;;25.56;39.12
6567;BME280;3317;43.994;22.878;2022-10-31T08:57:42;101517.56;;;25.68;38.17
6567;BME280;3317;43.994;22.878;2022-10-31T09:00:10;101513.38;;;25.77;37.11
6567;BME280;3317;43.994;22.878;2022-10-31T09:02:38;101510.41;;;25.91;37.68
6567;BME280;3317;43.994;22.878;2022-10-31T09:05:05;101514.25;;;26.01;36.62
6567;BME280;3317;43.994;22.878;2022-10-31T09:07:32;101502.69;;;26.05;36.59
6567;BME280;3317;43.994;22.878;2022-10-31T09:10:01;101477.56;;;25.99;36.31
6567;BME280;3317;43.994;22.878;2022-10-31T09:12:28;101506.84;;;26.38;38.20
6567;BME280;3317;43.994;22.878;2022-10-31T09:14:55;101498.16;;;26.46;37.22
6567;BME280;3317;43.994;22.878;2022-10-31T09:17:22;101511.44;;;26.68;37.58
6567;BME280;3317;43.994;22.878;2022-10-31T09:19:49;101442.22;;;26.42;36.72
6567;BME280;3317;43.994;22.878;2022-10-31T09:22:16;101503.91;;;26.92;37.63
6567;BME280;3317;43.994;22.878;2022-10-31T09:24:43;101495.88;;;27.08;38.72
6567;BME280;3317;43.994;22.878;2022-10-31T09:27:12;101498.13;;;27.23;36.80
6567;BME280;3317;43.994;22.878;2022-10-31T09:29:39;101506.91;;;27.32;36.94
6567;BME280;3317;43.994;22.878;2022-10-31T09:32:06;101513.22;;;27.27;34.60
6567;BME280;3317;43.994;22.878;2022-10-31T09:34:32;101511.22;;;27.10;34.18
6567;BME280;3317;43.994;22.878;2022-10-31T09:36:59;101503.47;;;27.12;35.48
6567;BME280;3317;43.994;22.878;2022-10-31T09:39:28;101502.09;;;27.27;36.26
6567;BME280;3317;43.994;22.878;2022-10-31T09:45:03;101506.38;;;27.47;33.73
6567;BME280;3317;43.994;22.878;2022-10-31T09:47:40;101504.31;;;27.54;33.79
6567;BME280;3317;43.994;22.878;2022-10-31T09:50:15;101501.78;;;27.69;34.76
6567;BME280;3317;43.994;22.878;2022-10-31T09:52:51;101486.13;;;27.80;34.89
6567;BME280;3317;43.994;22.878;2022-10-31T09:55:27;101500.97;;;27.86;33.46
6567;BME280;3317;43.994;22.878;2022-10-31T09:57:58;101496.41;;;27.80;32.55
6567;BME280;3317;43.994;22.878;2022-10-31T10:00:27;101493.28;;;27.76;32.81
6567;BME280;3317;43.994;22.878;2022-10-31T10:02:59;101490.84;;;27.80;33.04
6567;BME280;3317;43.994;22.878;2022-10-31T10:05:32;101486.88;;;27.93;33.67
6567;BME280;3317;43.994;22.878;2022-10-31T10:08:07;101488.47;;;28.06;33.46
6567;BME280;3317;43.994;22.878;2022-10-31T10:10:44;101483.94;;;28.17;34.99
6567;BME280;3317;43.994;22.878;2022-10-31T10:13:33;101480.53;;;28.32;33.83
6567;BME280;3317;43.994;22.878;2022-10-31T10:16:12;101480.63;;;28.37;32.20
6567;BME280;3317;43.994;22.878;2022-10-31T10:18:58;101482.97;;;28.45;33.08
6567;BME280;3317;43.994;22.878;2022-10-31T10:21:36;101478.88;;;28.53;32.59
6567;BME280;3317;43.994;22.878;2022-10-31T10:24:19;101455.81;;;28.58;31.88
6567;BME280;3317;43.994;22.878;2022-10-31T10:26:53;101466.06;;;28.74;32.79
6567;BME280;3317;43.994;22.878;2022-10-31T10:29:34;101453.38;;;28.84;32.87
6567;BME280;3317;43.994;22.878;2022-10-31T10:32:09;101454.63;;;28.93;31.54
6567;BME280;3317;43.994;22.878;2022-10-31T10:34:43;101442.34;;;28.94;31.64
6567;BME280;3317;43.994;22.878;2022-10-31T10:37:22;101431.00;;;29.01;32.10
6567;BME280;3317;43.994;22.878;2022-10-31T10:39:53;101444.84;;;29.18;32.51
6567;BME280;3317;43.994;22.878;2022-10-31T10:42:25;101465.69;;;29.37;32.85
6567;BME280;3317;43.994;22.878;2022-10-31T10:45:15;101440.84;;;29.36;30.59
6567;BME280;3317;43.994;22.878;2022-10-31T10:48:09;101455.34;;;29.33;29.91
6567;BME280;3317;43.994;22.878;2022-10-31T10:50:42;101452.47;;;29.28;29.72
6567;BME280;3317;43.994;22.878;2022-10-31T10:53:21;101448.38;;;29.35;30.65
6567;BME280;3317;43.994;22.878;2022-10-31T10:56:00;101441.84;;;29.52;33.10
6567;BME280;3317;43.994;22.878;2022-10-31T10:58:36;101448.16;;;29.70;33.62
6567;BME280;3317;43.994;22.878;2022-10-31T11:01:10;101447.13;;;29.81;32.78
6567;BME280;3317;43.994;22.878;2022-10-31T11:03:40;101452.22;;;29.89;32.97
6567;BME280;3317;43.994;22.878;2022-10-31T11:06:17;101438.88;;;30.02;33.90
6567;BME280;3317;43.994;22.878;2022-10-31T11:08:48;101440.09;;;30.06;32.21
6567;BME280;3317;43.994;22.878;2022-10-31T11:11:25;101424.34;;;30.00;30.99
6567;BME280;3317;43.994;22.878;2022-10-31T11:14:04;101439.00;;;30.12;30.66
6567;BME280;3317;43.994;22.878;2022-10-31T11:16:35;101438.72;;;30.14;30.74
6567;BME280;3317;43.994;22.878;2022-10-31T11:19:13;101429.53;;;30.18;31.67
6567;BME280;3317;43.994;22.878;2022-10-31T11:21:43;101429.78;;;30.12;29.73
6567;BME280;3317;43.994;22.878;2022-10-31T11:24:16;101424.34;;;30.00;28.72
6567;BME280;3317;43.994;22.878;2022-10-31T11:26:45;101413.16;;;29.95;29.67
6567;BME280;3317;43.994;22.878;2022-10-31T11:29:16;101412.84;;;29.96;29.34
6567;BME280;3317;43.994;22.878;2022-10-31T11:31:45;101417.13;;;30.04;31.27
6567;BME280;3317;43.994;22.878;2022-10-31T11:34:26;101412.72;;;30.08;31.16
6567;BME280;3317;43.994;22.878;2022-10-31T11:37:01;101415.41;;;29.98;28.49
6567;BME280;3317;43.994;22.878;2022-10-31T11:39:30;101411.97;;;29.90;29.54
6567;BME280;3317;43.994;22.878;2022-10-31T11:42:01;101411.72;;;29.92;29.85
6567;BME280;3317;43.994;22.878;2022-10-31T11:44:30;101407.00;;;29.98;31.00
6567;BME280;3317;43.994;22.878;2022-10-31T11:47:00;101401.13;;;29.94;29.61
6567;BME280;3317;43.994;22.878;2022-10-31T11:49:32;101396.31;;;29.84;28.75
6567;BME280;3317;43.994;22.878;2022-10-31T11:52:05;101405.75;;;29.78;28.69
6567;BME280;3317;43.994;22.878;2022-10-31T11:54:37;101397.91;;;29.75;30.16
6567;BME280;3317;43.994;22.878;2022-10-31T11:57:24;101396.53;;;29.72;30.32
6567;BME280;3317;43.994;22.878;2022-10-31T11:59:53;101392.88;;;29.72;30.83
6567;BME280;3317;43.994;22.878;2022-10-31T12:02:21;101384.81;;;29.75;31.30
6567;BME280;3317;43.994;22.878;2022-10-31T12:04:57;101394.06;;;29.81;29.86
6567;BME280;3317;43.994;22.878;2022-10-31T12:07:26;101394.88;;;29.82;29.48
6567;BME280;3317;43.994;22.878;2022-10-31T12:09:55;101388.41;;;29.76;29.11
6567;BME280;3317;43.994;22.878;2022-10-31T12:15:29;101383.06;;;29.36;29.62
6567;BME280;3317;43.994;22.878;2022-10-31T12:18:06;101365.06;;;29.22;30.40
6567;BME280;3317;43.994;22.878;2022-10-31T12:20:50;101366.81;;;29.28;30.50
6567;BME280;3317;43.994;22.878;2022-10-31T12:23:25;101333.47;;;29.16;31.13
6567;BME280;3317;43.994;22.878;2022-10-31T12:26:10;101356.78;;;29.32;30.22
6567;BME280;3317;43.994;22.878;2022-10-31T12:28:59;101373.88;;;29.41;31.42
6567;BME280;3317;43.994;22.878;2022-10-31T12:31:46;101363.16;;;29.28;30.51
6567;BME280;3317;43.994;22.878;2022-10-31T12:37:21;101359.38;;;29.12;31.16
6567;BME280;3317;43.994;22.878;2022-10-31T12:40:00;101371.41;;;29.12;30.79
6567;BME280;3317;43.994;22.878;2022-10-31T12:42:41;101320.00;;;28.80;31.12
6567;BME280;3317;43.994;22.878;2022-10-31T12:45:35;101356.19;;;28.98;31.36
6567;BME280;3317;43.994;22.878;2022-10-31T12:48:24;101354.22;;;28.98;32.18
6567;BME280;3317;43.994;22.878;2022-10-31T12:50:59;101355.19;;;28.81;30.86
6567;BME280;3317;43.994;22.878;2022-10-31T12:53:41;101351.72;;;28.74;32.30
6567;BME280;3317;43.994;22.878;2022-10-31T12:56:20;101358.38;;;28.68;32.17
6567;BME280;3317;43.994;22.878;2022-10-31T12:58:55;101353.84;;;28.62;31.94
6567;BME280;3317;43.994;22.878;2022-10-31T13:01:27;101345.06;;;28.53;32.07
6567;BME280;3317;43.994;22.878;2022-10-31T13:04:01;101352.81;;;28.46;32.71
6567;BME280;3317;43.994;22.878;2022-10-31T13:06:33;101353.59;;;28.41;33.17
6567;BME280;3317;43.994;22.878;2022-10-31T13:09:06;101354.88;;;28.33;32.92
6567;BME280;3317;43.994;22.878;2022-10-31T13:11:37;101349.75;;;28.25;33.02
6567;BME280;3317;43.994;22.878;2022-10-31T13:14:10;101348.47;;;28.16;32.26
6567;BME280;3317;43.994;22.878;2022-10-31T13:16:42;101358.13;;;28.08;32.61
6567;BME280;3317;43.994;22.878;2022-10-31T13:19:14;101346.06;;;28.02;33.19
6567;BME280;3317;43.994;22.878;2022-10-31T13:21:52;101330.84;;;27.88;33.52
6567;BME280;3317;43.994;22.878;2022-10-31T13:24:27;101347.53;;;27.88;34.01
6567;BME280;3317;43.994;22.878;2022-10-31T13:26:58;101350.50;;;27.81;34.07
6567;BME280;3317;43.994;22.878;2022-10-31T13:29:28;101343.44;;;27.73;33.78